METAR Data
IDs: Format: Raw Decoded Include TAF

Data at: 0109 UTC 06 Dec 2019

KVIS 060056Z AUTO 00000KT 10SM CLR 16/12 A3008 RMK AO2 SLP195 T01560122
KVIS 052356Z AUTO 25003KT 10SM CLR 17/12 A3007 RMK AO2 SLP192 T01670117 10183 20144 56006
KVIS 052256Z AUTO 00000KT 10SM CLR 17/11 A3008 RMK AO2 SLP194 T01720106
KVIS 052156Z AUTO 00000KT 10SM CLR 18/11 A3008 RMK AO2 SLP195 T01780106
KVIS 052056Z AUTO 00000KT 10SM CLR 18/11 A3009 RMK AO2 SLP198 T01780106 58023
KVIS 051956Z AUTO 24003KT 10SM CLR 17/10 A3011 RMK AO2 SLP204 T01720100
KVIS 051856Z AUTO 00000KT 10SM CLR 16/12 A3015 RMK AO2 SLP217 T01610117
KVIS 051756Z AUTO 09004KT 10SM CLR 14/11 A3016 RMK AO2 SLP222 T01440111 10144 20061 51027
KVIS 051656Z AUTO 12004KT 9SM SCT003 11/10 A3014 RMK AO2 SLP216 T01060100
KVIS 051648Z AUTO 16005KT 9SM BKN003 10/09 A3014 RMK AO2
KVIS 051639Z AUTO 17003KT 10SM SCT003 10/09 A3013 RMK AO2
KVIS 051556Z AUTO 10003KT 10SM CLR 08/08 A3010 RMK AO2 SLP203 T00830083
KVIS 051456Z AUTO 12003KT 10SM CLR 07/07 A3008 RMK AO2 SLP195 T00670067 53010
KVIS 051356Z AUTO 00000KT 10SM CLR 07/07 A3007 RMK AO2 SLP191 T00670067
KVIS 051256Z AUTO 00000KT 10SM CLR 07/07 A3006 RMK AO2 SLP188 T00670067
KVIS 051156Z AUTO 21003KT 10SM CLR 08/07 A3005 RMK AO2 SLP184 70038 T00830072 10122 20083 53013
KVIS 051056Z AUTO 08006KT 10SM CLR 09/08 A3003 RMK AO2 SLP178 T00940078
KVIS 050956Z AUTO 07004KT 10SM CLR 10/08 A3002 RMK AO2 SLP175 T01000078
KVIS 050856Z AUTO 07005KT 10SM CLR 10/09 A3001 RMK AO2 SLP171 T01000089 50003
KVIS 050756Z AUTO 08003KT 10SM CLR 10/09 A3001 RMK AO2 SLP172 T01000089 401670100
KVIS 050656Z AUTO 09005KT 10SM BKN075 12/10 A3001 RMK AO2 SLP173 T01170100
KVIS 050556Z AUTO 10004KT 10SM OVC075 12/11 A3000 RMK AO2 SLP168 60000 T01220106 10156 20122 51024
KVIS 050456Z AUTO 09005KT 10SM OVC070 12/12 A2998 RMK AO2 RAE03 SLP163 P0000 T01220117
KVIS 050356Z AUTO 03004KT 10SM -RA BKN070 OVC080 13/12 A2996 RMK AO2 RAB47 SLP155 P0000 T01280117
KVIS 050256Z AUTO 02003KT 10SM OVC070 13/12 A2993 RMK AO2 SLP144 T01280122 53020
KVIS 050156Z AUTO 20003KT 10SM FEW075 OVC090 13/12 A2990 RMK AO2 SLP135 T01330117